EETUULOO

Guest
Details From EETU - TARTU
To ULOO - PSKOV
Flight Number -
Tags generated
Created
Modified
Stats Distance 63 nm / 116 km
Max Altitude 0 ft / 0 m
Waypoints 2
Social Downloads 2
Likes 0
Share VATSIM

Download

Looking for another format? Having issues loading an existing format? Contact us
Advertisement - Login to hide

Notes

Basic altitude profile: - Ascent Rate: 2500ft/min - Ascent Speed: 250kts - Cruise Altitude: 35000ft - Cruise Speed: 420kts - Descent Rate: 1500ft/min - Descent Speed: 250kts Options: - Use NATs: yes - Use PACOTS: yes - Use low airways: yes - Use high airways: yes

Route

EETU ULOO

ID Type Via Altitude Latitude Longitude Leg Dist Tot Dist Heading (true) Name
O EETU APT - 0 ft / 0 m 58.30746˚ 26.69043˚ - 0 nm - TARTU
O ULOO APT - 0 ft / 0 m 57.78387˚ 28.39647˚ 62 nm 62 nm 119° / 121° PSKOV

Altitude Profile

Advertisement - Login to hide

EETU

Details ICAO EETU (TAY)
Name TARTU
Region Estonia
Timezone Europe/Tallinn (UTC+3.0)
Stats Elevation 219 ft / 67 m (AMSL)
Location 58.307462° 26.690427°
Runways 1
Magnetic Variation 9.010° E

METAR

EETU 252050Z 00000KT CAVOK 13/05 Q1029

Decode

TAF

Not found

Departure Runways

ID Width Length Bearing (true) Bearing (mag) Surface Threshold Offset Overrun Length
08 115 ft / 35 m 4,510 ft / 1,375 m 88.42° 79.41° Asphalt 0 ft / 0 m 0 ft / 0 m
26 115 ft / 35 m 4,510 ft / 1,375 m 268.44° 259.43° Asphalt 0 ft / 0 m 0 ft / 0 m

ULOO

Details ICAO ULOO (PKV)
Name PSKOV
Region Russia
Timezone Europe/Moscow (UTC+3.0)
Stats Elevation 154 ft / 47 m (AMSL)
Location 57.783872° 28.396468°
Runways 2
Magnetic Variation 9.395° E

METAR

ULOO 252100Z AUTO VRB01MPS 9000 // NCD 11/06 Q1029 RMK QFE768

Decode

TAF

Not found

Destination Runways

ID Width Length Bearing (true) Bearing (mag) Surface Threshold Offset Overrun Length
01 144 ft / 44 m 6,551 ft / 1,997 m 17.98° 8.58° Concrete 0 ft / 0 m 885 ft / 270 m
01R 144 ft / 44 m 5,656 ft / 1,724 m 18.38° 8.98° Dirt 0 ft / 0 m 0 ft / 0 m
19 144 ft / 44 m 6,551 ft / 1,997 m 197.99° 188.59° Concrete 0 ft / 0 m 150 ft / 46 m
19L 144 ft / 44 m 5,656 ft / 1,724 m 198.38° 188.98° Dirt 0 ft / 0 m 0 ft / 0 m